Time;durP1;ratioP1;P1;durP2;ratioP2;P2;SDS_P1;SDS_P2;PMS_P1;PMS_P2;Temp;Humidity;BMP_temperature;BMP_pressure;BME280_temperature;BME280_humidity;BME280_pressure;Samples;Min_cycle;Max_cycle;Signal;HPM_P1;HPM_P2
2023/01/02 00:01:19;;;;;;;17.55;9.35;;;;;;;9.43;74.78;101564.11;1685945;84;21939;-92
2023/01/02 00:03:46;;;;;;;14.80;9.63;;;;;;;9.46;74.76;101563.33;1686813;84;21740;-93
2023/01/02 00:06:13;;;;;;;15.38;10.10;;;;;;;9.47;74.71;101562.52;1686207;83;21052;-92
2023/01/02 00:08:39;;;;;;;14.20;9.05;;;;;;;9.48;74.70;101568.27;1686242;84;21018;-92
2023/01/02 00:11:06;;;;;;;16.70;10.10;;;;;;;9.46;74.69;101570.83;1674008;84;20996;-93
2023/01/02 00:13:33;;;;;;;17.35;10.53;;;;;;;9.47;74.61;101581.80;1654971;85;21555;-92
2023/01/02 00:15:59;;;;;;;17.00;10.03;;;;;;;9.44;74.56;101581.69;1669476;84;21740;-92
2023/01/02 00:18:26;;;;;;;18.20;10.03;;;;;;;9.42;74.57;101577.18;1669431;84;21051;-92
2023/01/02 00:20:53;;;;;;;18.12;9.70;;;;;;;9.38;74.60;101572.20;1672691;84;20992;-90
2023/01/02 00:23:20;;;;;;;17.87;9.78;;;;;;;9.36;74.67;101571.25;1672423;85;21000;-92
2023/01/02 00:25:51;;;;;;;15.45;9.65;;;;;;;9.37;74.74;101569.12;1670756;85;20993;-92
2023/01/02 00:28:17;;;;;;;15.63;9.48;;;;;;;9.38;74.74;101573.95;1668920;85;21760;-91
2023/01/02 00:30:44;;;;;;;17.75;10.20;;;;;;;9.39;74.80;101588.90;1669152;85;20996;-92
2023/01/02 00:33:10;;;;;;;15.20;9.15;;;;;;;9.39;74.77;101585.84;1671521;85;20985;-92
2023/01/02 00:35:38;;;;;;;17.25;9.65;;;;;;;9.36;74.82;101584.39;1669811;85;21536;-91
2023/01/02 00:38:05;;;;;;;16.15;9.20;;;;;;;9.38;74.85;101581.41;1667715;85;21570;-92
2023/01/02 00:40:31;;;;;;;18.35;9.43;;;;;;;9.39;74.83;101579.27;1669321;84;22383;-91
2023/01/02 00:42:58;;;;;;;17.60;9.38;;;;;;;9.39;74.83;101584.95;1668246;84;21090;-92
2023/01/02 00:45:25;;;;;;;14.63;9.03;;;;;;;9.38;74.86;101583.14;1671078;84;20975;-92
2023/01/02 00:47:51;;;;;;;14.80;8.50;;;;;;;9.38;74.84;101584.45;1669266;84;21067;-92
2023/01/02 00:50:19;;;;;;;16.93;8.60;;;;;;;9.35;74.86;101573.41;1664560;85;21054;-93
2023/01/02 00:52:45;;;;;;;15.30;7.83;;;;;;;9.35;74.95;101566.84;1670886;84;22959;-92
2023/01/02 00:55:12;;;;;;;15.95;8.20;;;;;;;9.37;74.97;101564.29;1668179;85;22411;-92
2023/01/02 00:57:39;;;;;;;15.23;7.53;;;;;;;9.36;74.99;101563.36;1672318;84;21026;-91
2023/01/02 01:00:07;;;;;;;12.35;7.60;;;;;;;9.35;74.99;101566.84;1671245;85;21024;-92
2023/01/02 01:02:34;;;;;;;13.78;7.35;;;;;;;9.37;75.04;101577.42;1669954;85;20985;-93
2023/01/02 01:05:00;;;;;;;13.43;8.08;;;;;;;9.38;75.04;101571.32;1671200;84;22987;-93
2023/01/02 01:07:28;;;;;;;12.73;7.55;;;;;;;9.39;75.03;101567.88;1669794;85;21577;-93
2023/01/02 01:09:55;;;;;;;16.65;9.25;;;;;;;9.36;75.01;101560.73;1672816;84;21002;-93
2023/01/02 01:12:22;;;;;;;20.10;9.80;;;;;;;9.36;75.02;101561.16;1628594;86;22016;-92
2023/01/02 01:14:48;;;;;;;15.48;8.88;;;;;;;9.36;75.06;101565.10;1670158;85;21062;-93
2023/01/02 01:17:15;;;;;;;16.80;8.90;;;;;;;9.38;75.09;101563.44;1670375;85;21775;-92
2023/01/02 01:19:42;;;;;;;16.62;9.53;;;;;;;9.35;75.03;101558.95;1669069;85;20972;-91
2023/01/02 01:22:08;;;;;;;13.43;8.15;;;;;;;9.33;75.06;101561.52;1671639;85;21024;-93
2023/01/02 01:24:35;;;;;;;16.77;8.40;;;;;;;9.30;75.04;101561.38;1668471;85;21059;-92
2023/01/02 01:27:02;;;;;;;14.80;7.75;;;;;;;9.33;75.10;101571.14;1669160;85;21019;-94
2023/01/02 01:29:28;;;;;;;15.38;7.55;;;;;;;9.33;75.22;101569.39;1668924;85;21732;-94
2023/01/02 01:31:55;;;;;;;13.25;7.70;;;;;;;9.33;75.20;101567.20;1671803;84;20984;-94
2023/01/02 01:34:22;;;;;;;14.70;7.55;;;;;;;9.34;75.23;101570.29;1667508;84;21568;-94
2023/01/02 01:36:49;;;;;;;12.78;6.90;;;;;;;9.34;75.22;101568.97;1669146;85;21982;-94
2023/01/02 01:39:15;;;;;;;12.68;7.28;;;;;;;9.32;75.19;101571.95;1667431;84;21007;-93
2023/01/02 01:41:42;;;;;;;9.23;6.25;;;;;;;9.31;75.29;101568.86;1671853;85;21904;-92
2023/01/02 01:44:49;;;;;;;12.78;6.60;;;;;;;9.31;75.33;101560.98;1672866;85;21067;-93
2023/01/02 01:47:40;;;;;;;13.70;6.70;;;;;;;9.31;75.37;101555.73;1664883;84;21856;-93
2023/01/02 01:50:31;;;;;;;10.85;6.20;;;;;;;9.32;75.40;101554.45;1673636;85;21064;-93
2023/01/02 01:53:11;;;;;;;14.07;6.80;;;;;;;9.29;75.43;101545.53;1674339;85;21751;-92
2023/01/02 01:55:42;;;;;;;11.15;7.10;;;;;;;9.34;75.37;101562.41;1671691;85;21815;-92
2023/01/02 01:58:11;;;;;;;11.70;5.92;;;;;;;9.33;75.39;101558.00;1668378;85;21036;-92
2023/01/02 02:00:38;;;;;;;12.60;6.37;;;;;;;9.35;75.52;101558.95;1670417;84;20979;-93
2023/01/02 02:03:10;;;;;;;10.43;6.70;;;;;;;9.38;75.46;101568.69;1648149;85;20992;-92
2023/01/02 02:05:37;;;;;;;15.20;6.92;;;;;;;9.38;75.48;101559.06;1670169;85;21810;-93
2023/01/02 02:08:27;;;;;;;14.47;6.67;;;;;;;9.40;75.49;101563.08;1632655;86;21700;-93
2023/01/02 02:10:58;;;;;;;10.03;6.60;;;;;;;9.39;75.46;101563.51;1671157;84;21031;-92
2023/01/02 02:13:23;;;;;;;13.88;6.50;;;;;;;9.40;75.51;101566.59;1660945;84;21034;-93
2023/01/02 02:16:24;;;;;;;14.58;6.53;;;;;;;9.42;75.54;101570.61;1685151;84;21016;-93
2023/01/02 02:19:21;;;;;;;10.95;6.00;;;;;;;9.42;75.58;101565.36;1683094;84;20984;-94
2023/01/02 02:22:08;;;;;;;11.95;5.97;;;;;;;9.43;75.63;101565.85;1684583;84;21734;-93
2023/01/02 02:25:30;;;;;;;11.55;6.58;;;;;;;9.45;75.75;101553.67;1685793;84;21721;-94
2023/01/02 02:28:26;;;;;;;10.03;6.22;;;;;;;9.47;75.83;101546.75;1683147;84;21020;-94
2023/01/02 02:31:04;;;;;;;11.08;5.42;;;;;;;9.48;75.89;101546.82;1682503;84;21007;-94
2023/01/02 02:33:39;;;;;;;9.93;6.12;;;;;;;9.49;76.01;101545.08;1683467;83;21054;-95
2023/01/02 02:36:34;;;;;;;10.05;6.22;;;;;;;9.51;76.09;101540.78;1681514;84;22615;-93
2023/01/02 02:39:17;;;;;;;9.70;6.10;;;;;;;9.54;76.18;101534.36;1679692;84;21008;-91
2023/01/02 02:41:55;;;;;;;10.78;6.53;;;;;;;9.55;76.16;101545.33;1684627;84;21027;-92
2023/01/02 02:44:49;;;;;;;14.65;7.22;;;;;;;9.50;76.10;101549.09;1682798;84;21007;-93
2023/01/02 02:47:23;;;;;;;13.45;7.05;;;;;;;9.47;76.24;101540.18;1683955;84;21038;-92
2023/01/02 02:50:14;;;;;;;10.68;6.42;;;;;;;9.48;76.32;101536.73;1684182;84;23005;-92
2023/01/02 02:52:49;;;;;;;14.50;6.72;;;;;;;9.47;76.27;101531.87;1684529;84;20994;-92
2023/01/02 02:55:27;;;;;;;15.98;7.35;;;;;;;9.42;76.29;101528.17;1684226;83;20892;-92
2023/01/02 02:57:54;;;;;;;12.53;6.70;;;;;;;9.42;76.33;101532.51;1680529;84;20984;-93
2023/01/02 03:00:22;;;;;;;11.55;6.67;;;;;;;9.42;76.41;101535.14;1682692;84;21067;-92
2023/01/02 03:02:48;;;;;;;11.40;7.17;;;;;;;9.39;76.42;101537.66;1685629;84;21824;-91
2023/01/02 03:05:38;;;;;;;10.95;6.00;;;;;;;9.38;76.57;101531.48;1684903;83;21039;-91
2023/01/02 03:08:23;;;;;;;13.95;6.78;;;;;;;9.41;76.61;101527.68;1684460;84;20995;-91
2023/01/02 03:10:56;;;;;;;10.15;6.22;;;;;;;9.45;76.66;101530.02;1682958;83;21022;-92
2023/01/02 03:13:40;;;;;;;8.75;6.08;;;;;;;9.45;76.63;101527.39;1667994;85;21003;-91
2023/01/02 03:16:29;;;;;;;9.20;5.85;;;;;;;9.47;76.69;101530.56;1637875;86;22913;-92
2023/01/02 03:19:14;;;;;;;11.22;6.33;;;;;;;9.50;76.68;101528.49;1662335;85;21007;-91
2023/01/02 03:21:57;;;;;;;12.68;5.90;;;;;;;9.52;76.70;101523.77;1665718;85;20911;-91
2023/01/02 03:24:24;;;;;;;9.53;5.58;;;;;;;9.51;76.60;101525.02;1668276;85;20996;-91
2023/01/02 03:26:55;;;;;;;9.35;5.70;;;;;;;9.49;76.56;101519.69;1666068;85;21015;-92
2023/01/02 03:29:45;;;;;;;11.53;5.67;;;;;;;9.46;76.62;101516.95;1664323;83;21803;-91
2023/01/02 03:32:22;;;;;;;12.47;5.95;;;;;;;9.45;76.70;101520.41;1666853;84;21047;-91
2023/01/02 03:34:48;;;;;;;10.60;6.00;;;;;;;9.44;76.74;101513.37;1658741;85;21056;-92
2023/01/02 03:37:19;;;;;;;13.32;6.22;;;;;;;9.44;76.80;101505.88;1662837;85;21132;-91
2023/01/02 03:39:50;;;;;;;10.88;5.85;;;;;;;9.41;76.67;101505.77;1647893;85;21086;-91
2023/01/02 03:42:22;;;;;;;9.58;6.15;;;;;;;9.37;76.74;101498.17;1665039;85;21723;-91
2023/01/02 03:44:57;;;;;;;13.10;6.17;;;;;;;9.36;76.79;101502.05;1668207;85;20995;-91
2023/01/02 03:47:38;;;;;;;14.03;6.03;;;;;;;9.38;76.94;101504.31;1669450;85;21016;-91
2023/01/02 03:50:13;;;;;;;13.40;6.45;;;;;;;9.38;77.01;101505.20;1640359;84;39086;-92
2023/01/02 03:52:40;;;;;;;15.53;6.53;;;;;;;9.40;76.97;101492.14;1662718;85;21959;-92
2023/01/02 03:55:08;;;;;;;13.90;6.62;;;;;;;9.40;76.93;101485.14;1663856;85;21612;-91
2023/01/02 03:57:59;;;;;;;9.70;6.50;;;;;;;9.40;76.98;101473.75;1661272;85;21964;-91
2023/01/02 04:00:33;;;;;;;10.55;5.72;;;;;;;9.42;76.98;101468.13;1658723;84;21047;-92
2023/01/02 04:03:11;;;;;;;16.87;6.92;;;;;;;9.43;77.01;101463.38;1663245;85;21093;-92
2023/01/02 04:05:50;;;;;;;13.80;7.20;;;;;;;9.44;77.03;101459.50;1661194;85;21095;-91
2023/01/02 04:08:34;;;;;;;13.30;6.90;;;;;;;9.46;77.09;101459.14;1657383;85;21762;-92
2023/01/02 04:11:01;;;;;;;12.78;7.33;;;;;;;9.49;77.12;101462.30;1661644;84;25994;-93
2023/01/02 04:13:38;;;;;;;11.00;6.75;;;;;;;9.49;77.08;101450.47;1672504;85;21711;-95
2023/01/02 04:16:07;;;;;;;13.03;7.20;;;;;;;9.47;77.08;101450.83;1668613;85;21513;-95
2023/01/02 04:18:38;;;;;;;11.65;6.28;;;;;;;9.47;77.13;101439.89;1640917;85;21038;-96
2023/01/02 04:21:09;;;;;;;17.20;7.00;;;;;;;9.47;77.15;101446.89;1662602;84;23254;-94
2023/01/02 04:23:39;;;;;;;12.05;7.22;;;;;;;9.48;77.24;101445.64;1663637;85;21262;-96
2023/01/02 04:26:14;;;;;;;14.63;7.20;;;;;;;9.47;77.21;101442.52;1658898;84;21086;-90
2023/01/02 04:28:41;;;;;;;15.20;7.35;;;;;;;9.45;77.23;101441.56;1663313;85;21016;-92
2023/01/02 04:31:31;;;;;;;12.03;8.35;;;;;;;9.46;77.29;101438.12;1657731;85;21762;-92
2023/01/02 04:33:59;;;;;;;19.37;10.08;;;;;;;9.47;77.35;101437.27;1656778;85;21788;-92
2023/01/02 04:36:26;;;;;;;12.78;8.70;;;;;;;9.45;77.30;101437.63;1660204;83;22031;-92
2023/01/02 04:38:53;;;;;;;15.28;8.98;;;;;;;9.44;77.33;101442.42;1634133;85;22086;-91
2023/01/02 04:41:25;;;;;;;14.33;9.58;;;;;;;9.44;77.40;101438.48;1660412;84;21146;-93
2023/01/02 04:43:52;;;;;;;14.65;8.58;;;;;;;9.44;77.47;101434.92;1655879;85;21059;-93
2023/01/02 04:46:19;;;;;;;13.75;8.75;;;;;;;9.45;77.49;101434.99;1662895;84;21730;-92
2023/01/02 04:48:45;;;;;;;12.93;8.55;;;;;;;9.46;77.53;101424.98;1631283;86;21133;-90
2023/01/02 04:51:12;;;;;;;13.60;8.13;;;;;;;9.47;77.63;101428.50;1665046;84;21160;-90
2023/01/02 04:53:39;;;;;;;15.32;8.20;;;;;;;9.51;77.66;101433.03;1662349;84;21098;-91
2023/01/02 04:56:06;;;;;;;15.03;8.68;;;;;;;9.51;77.74;101420.78;1657952;84;21075;-90
2023/01/02 04:58:33;;;;;;;17.80;9.05;;;;;;;9.51;77.75;101418.58;1663562;85;21741;-91
2023/01/02 05:01:00;;;;;;;14.03;8.35;;;;;;;9.52;77.84;101417.76;1666455;84;22064;-91
2023/01/02 05:03:26;;;;;;;13.48;7.58;;;;;;;9.47;77.89;101405.73;1661999;84;21063;-92
2023/01/02 05:06:00;;;;;;;14.35;7.53;;;;;;;9.54;78.01;101402.95;1662416;85;21043;-89
2023/01/02 05:08:28;;;;;;;12.45;6.67;;;;;;;9.56;78.02;101396.44;1664801;85;21079;-91
2023/01/02 05:10:55;;;;;;;13.48;7.45;;;;;;;9.57;78.00;101391.64;1665611;85;22942;-90
2023/01/02 05:13:22;;;;;;;15.13;7.90;;;;;;;9.53;78.02;101391.55;1677392;84;21011;-83
2023/01/02 05:15:56;;;;;;;14.28;8.20;;;;;;;9.53;78.17;101395.48;1683606;84;21085;-84
2023/01/02 05:18:23;;;;;;;10.72;6.67;;;;;;;9.54;78.24;101393.74;1683405;83;21590;-84
2023/01/02 05:20:50;;;;;;;12.10;7.08;;;;;;;9.54;78.37;101378.86;1680926;84;21141;-84
2023/01/02 05:26:02;;;;;;;13.43;7.58;;;;;;;9.59;78.49;101380.38;1680653;84;21978;-84
2023/01/02 05:28:28;;;;;;;16.65;8.13;;;;;;;9.60;78.61;101363.75;1683792;84;21973;-84
2023/01/02 05:30:59;;;;;;;16.23;8.38;;;;;;;9.61;78.69;101355.44;1681556;84;21861;-86
2023/01/02 05:33:25;;;;;;;12.07;7.80;;;;;;;9.65;78.72;101356.06;1681695;84;21282;-87
2023/01/02 05:35:52;;;;;;;14.05;7.92;;;;;;;9.66;78.78;101346.89;1684185;84;21741;-85
2023/01/02 05:38:19;;;;;;;16.93;8.93;;;;;;;9.62;78.78;101340.16;1664944;84;21141;-93
2023/01/02 05:40:46;;;;;;;14.53;9.43;;;;;;;9.63;78.95;101338.91;1683760;84;20989;-89
2023/01/02 05:43:12;;;;;;;16.37;9.85;;;;;;;9.67;79.06;101338.61;1682502;84;22047;-85
2023/01/02 05:45:39;;;;;;;14.50;9.90;;;;;;;9.69;79.18;101329.94;1684447;83;21473;-90
2023/01/02 05:48:06;;;;;;;22.77;10.80;;;;;;;9.75;79.22;101332.33;1681030;83;21947;-89
2023/01/02 05:50:32;;;;;;;17.35;11.03;;;;;;;9.77;79.31;101331.53;1683179;83;21161;-93
2023/01/02 05:52:59;;;;;;;26.68;11.78;;;;;;;9.78;79.30;101322.83;1681370;84;21041;-91
2023/01/02 05:55:26;;;;;;;18.77;12.18;;;;;;;9.78;79.24;101328.08;1683532;84;21610;-90
2023/01/02 05:57:58;;;;;;;18.02;10.05;;;;;;;9.76;79.19;101328.45;1678925;84;21074;-89
2023/01/02 06:00:24;;;;;;;17.40;10.65;;;;;;;9.77;79.36;101319.70;1664331;85;21781;-87
2023/01/02 06:02:51;;;;;;;22.22;11.30;;;;;;;9.79;79.41;101313.20;1674379;85;21058;-84
2023/01/02 06:05:18;;;;;;;17.35;10.80;;;;;;;9.80;79.46;101309.70;1684784;84;21141;-91
2023/01/02 06:07:44;;;;;;;19.45;10.00;;;;;;;9.83;79.56;101308.52;1647891;86;21082;-89
2023/01/02 06:10:11;;;;;;;20.37;11.45;;;;;;;9.84;79.47;101303.75;1683420;84;21050;-89
2023/01/02 06:12:38;;;;;;;17.87;11.95;;;;;;;9.78;79.43;101301.79;1671824;83;22058;-89
2023/01/02 06:15:07;;;;;;;22.45;13.05;;;;;;;9.76;79.39;101307.41;1668204;85;21019;-89
2023/01/02 06:17:34;;;;;;;23.62;13.40;;;;;;;9.74;79.52;101307.75;1669521;83;21078;-89
2023/01/02 06:20:01;;;;;;;19.40;13.15;;;;;;;9.72;79.49;101299.83;1668263;84;21087;-88
2023/01/02 06:22:27;;;;;;;19.85;13.15;;;;;;;9.72;79.56;101298.91;1666946;85;21132;-89
2023/01/02 06:24:54;;;;;;;20.45;12.45;;;;;;;9.67;79.43;101304.02;1668408;85;21728;-89
2023/01/02 06:27:21;;;;;;;18.60;12.33;;;;;;;9.64;79.62;101304.31;1669270;85;21051;-89
2023/01/02 06:29:48;;;;;;;19.27;11.53;;;;;;;9.67;79.79;101301.81;1667999;85;22525;-89
2023/01/02 06:32:14;;;;;;;19.95;12.20;;;;;;;9.67;79.85;101296.12;1666969;85;21020;-89
2023/01/02 06:34:41;;;;;;;19.05;11.75;;;;;;;9.69;79.92;101287.87;1668027;85;21054;-88
2023/01/02 06:37:08;;;;;;;19.02;10.72;;;;;;;9.70;80.01;101288.76;1670421;85;21822;-89
2023/01/02 06:39:34;;;;;;;23.07;11.88;;;;;;;9.69;80.11;101277.36;1655611;85;21091;-88
2023/01/02 06:42:01;;;;;;;16.07;10.35;;;;;;;9.75;80.21;101280.63;1669676;84;21004;-89
2023/01/02 06:44:28;;;;;;;14.95;10.28;;;;;;;9.76;80.25;101278.50;1671116;85;21627;-89
2023/01/02 06:46:55;;;;;;;17.55;10.93;;;;;;;9.78;80.30;101274.58;1666698;85;21091;-88
2023/01/02 06:49:21;;;;;;;21.02;12.10;;;;;;;9.80;80.29;101276.84;1667562;85;22674;-89
2023/01/02 06:51:48;;;;;;;19.45;11.28;;;;;;;9.79;80.38;101272.02;1669389;84;22252;-89
2023/01/02 06:54:15;;;;;;;22.05;12.15;;;;;;;9.81;80.39;101266.81;1668178;85;21477;-88
2023/01/02 06:56:42;;;;;;;23.47;12.70;;;;;;;9.78;80.35;101251.84;1665577;85;21035;-88
2023/01/02 06:59:09;;;;;;;23.18;14.53;;;;;;;9.74;80.43;101249.91;1669341;85;21098;-89
2023/01/02 07:01:36;;;;;;;28.95;15.80;;;;;;;9.74;80.53;101248.59;1670224;84;21794;-88
2023/01/02 07:04:03;;;;;;;22.42;15.65;;;;;;;9.71;80.62;101248.08;1670992;85;21012;-89
2023/01/02 07:06:29;;;;;;;25.05;17.12;;;;;;;9.73;80.72;101249.02;1671105;85;20988;-88
2023/01/02 07:08:56;;;;;;;26.30;14.85;;;;;;;9.76;80.76;101246.03;1673050;85;20996;-88
2023/01/02 07:11:23;;;;;;;20.65;14.95;;;;;;;9.75;80.72;101242.52;1672951;84;21004;-88
2023/01/02 07:13:52;;;;;;;29.45;16.57;;;;;;;9.71;80.77;101241.94;1689969;83;22692;-90
2023/01/02 07:16:25;;;;;;;27.07;16.27;;;;;;;9.69;80.83;101231.78;1671569;85;20972;-89
2023/01/02 07:18:52;;;;;;;25.00;17.02;;;;;;;9.67;80.90;101230.41;1675638;85;20989;-89
2023/01/02 07:21:19;;;;;;;36.17;19.25;;;;;;;9.65;80.91;101221.58;1693580;84;22119;-90
2023/01/02 07:23:46;;;;;;;46.15;25.17;;;;;;;9.63;81.08;101209.20;1668369;84;21870;-89
2023/01/02 07:26:13;;;;;;;48.78;30.45;;;;;;;9.63;81.08;101213.14;1693690;84;21747;-89
2023/01/02 07:28:40;;;;;;;44.65;30.50;;;;;;;9.63;81.09;101205.25;1693413;84;21034;-90
2023/01/02 07:31:12;;;;;;;42.67;28.42;;;;;;;9.58;81.16;101190.65;1692795;84;20999;-89
2023/01/02 07:33:39;;;;;;;35.85;25.70;;;;;;;9.58;81.23;101193.70;1668064;84;21003;-89
2023/01/02 07:36:15;;;;;;;36.53;25.20;;;;;;;9.57;81.24;101199.79;1693389;84;21408;-88
2023/01/02 07:38:42;;;;;;;34.85;24.00;;;;;;;9.55;81.33;101194.47;1691533;84;21747;-89
2023/01/02 07:41:25;;;;;;;35.90;23.92;;;;;;;9.56;81.44;101196.70;1693685;84;21866;-88
2023/01/02 07:43:54;;;;;;;37.70;25.17;;;;;;;9.57;81.52;101183.59;1673068;85;21818;-88
2023/01/02 07:46:20;;;;;;;38.90;26.12;;;;;;;9.56;81.55;101192.77;1665831;85;21612;-88
2023/01/02 07:48:49;;;;;;;37.00;25.00;;;;;;;9.57;81.61;101193.22;1678808;85;21007;-88
2023/01/02 07:51:16;;;;;;;32.90;23.02;;;;;;;9.58;81.72;101192.39;1688738;84;22470;-91
2023/01/02 07:53:42;;;;;;;30.97;21.75;;;;;;;9.58;81.73;101180.14;1691961;84;20972;-88
2023/01/02 07:56:09;;;;;;;34.60;22.55;;;;;;;9.59;81.80;101174.05;1692406;84;21008;-88
2023/01/02 07:58:38;;;;;;;37.03;23.87;;;;;;;9.59;81.78;101171.82;1692601;84;21054;-88
2023/01/02 08:01:07;;;;;;;38.70;24.85;;;;;;;9.60;81.88;101171.88;1692450;84;21066;-88
2023/01/02 08:03:34;;;;;;;41.20;25.62;;;;;;;9.63;81.97;101171.09;1692090;83;22793;-88
2023/01/02 08:06:13;;;;;;;44.67;28.77;;;;;;;9.65;82.04;101166.38;1693156;84;21454;-88
2023/01/02 08:08:40;;;;;;;47.20;29.95;;;;;;;9.66;81.96;101173.41;1693662;84;21489;-88
2023/01/02 08:11:10;;;;;;;44.95;31.77;;;;;;;9.65;82.00;101167.69;1695331;83;21043;-87
2023/01/02 08:13:36;;;;;;;43.78;31.07;;;;;;;9.67;82.04;101170.38;1654488;85;21551;-88
2023/01/02 08:16:09;;;;;;;48.48;30.45;;;;;;;9.69;82.06;101167.39;1633589;86;21825;-87
2023/01/02 08:18:36;;;;;;;45.77;28.97;;;;;;;9.69;82.10;101169.58;1644695;85;21814;-87
2023/01/02 08:21:06;;;;;;;42.30;27.95;;;;;;;9.71;82.13;101170.95;1620934;86;21000;-88
2023/01/02 08:23:33;;;;;;;43.70;26.48;;;;;;;9.72;82.19;101168.39;1628075;86;21555;-88
2023/01/02 08:26:03;;;;;;;37.67;25.12;;;;;;;9.75;82.26;101162.77;1622796;86;22527;-89
2023/01/02 08:28:30;;;;;;;39.55;26.10;;;;;;;9.77;82.27;101169.84;1607229;87;21754;-88
2023/01/02 08:30:57;;;;;;;43.05;28.40;;;;;;;9.80;82.26;101167.73;1608344;86;21003;-88
2023/01/02 08:33:41;;;;;;;44.48;29.02;;;;;;;9.80;82.22;101163.79;1631475;86;21068;-88
2023/01/02 08:36:16;;;;;;;41.55;29.95;;;;;;;9.81;82.24;101163.85;1630115;85;21059;-91
2023/01/02 08:38:46;;;;;;;;;;;;;;;9.81;82.20;101161.65;1616207;86;21429;-90
2023/01/02 08:41:37;;;;;;;47.85;31.70;;;;;;;9.76;82.18;101157.56;1591458;88;21539;-87
2023/01/02 08:44:04;;;;;;;46.58;31.62;;;;;;;9.73;82.34;101153.50;1639559;86;21004;-90
2023/01/02 08:46:31;;;;;;;44.85;31.82;;;;;;;9.79;82.45;101155.02;1639185;86;21060;-88
2023/01/02 08:48:57;;;;;;;48.25;33.00;;;;;;;9.82;82.50;101152.51;1638210;85;21020;-88
2023/01/02 08:51:24;;;;;;;42.62;29.82;;;;;;;9.87;82.54;101144.77;1638260;86;21056;-88
2023/01/02 08:53:51;;;;;;;49.55;30.90;;;;;;;9.90;82.53;101145.77;1639337;85;21943;-89
2023/01/02 08:57:09;;;;;;;44.25;30.00;;;;;;;9.95;82.57;101144.63;1633692;86;21003;-88
2023/01/02 08:59:24;;;;;;;45.50;28.57;;;;;;;10.00;82.58;101139.50;1636500;86;21101;-88
2023/01/02 09:01:51;;;;;;;45.83;28.17;;;;;;;10.05;82.66;101132.67;1615157;87;21046;-90
2023/01/02 09:04:18;;;;;;;42.60;27.35;;;;;;;10.13;82.61;101129.86;1632301;85;21060;-90
2023/01/02 09:06:45;;;;;;;35.35;23.47;;;;;;;10.17;82.52;101128.22;1619357;85;21741;-90
2023/01/02 09:09:14;;;;;;;39.38;24.30;;;;;;;10.21;82.50;101123.12;1635761;85;21095;-88
2023/01/02 09:11:49;;;;;;;39.58;24.55;;;;;;;10.25;82.48;101125.02;1631172;86;21079;-88
2023/01/02 09:14:16;;;;;;;45.03;28.38;;;;;;;10.33;82.52;101131.86;1673731;83;21038;-89
2023/01/02 09:16:45;;;;;;;37.28;24.47;;;;;;;10.42;82.49;101128.64;1647303;85;21105;-89
2023/01/02 09:19:11;;;;;;;37.73;27.32;;;;;;;10.47;82.38;101130.58;1673290;85;22918;-89
2023/01/02 09:21:38;;;;;;;45.23;28.85;;;;;;;10.52;82.37;101124.13;1666052;85;21008;-89
2023/01/02 09:24:06;;;;;;;44.98;27.17;;;;;;;10.57;82.30;101132.19;1665822;85;21007;-89
2023/01/02 09:26:33;;;;;;;47.83;30.52;;;;;;;10.59;82.11;101119.96;1666809;85;21423;-90
2023/01/02 09:29:00;;;;;;;52.05;32.25;;;;;;;10.60;82.09;101110.77;1662238;85;21073;-90
2023/01/02 09:31:27;;;;;;;47.80;31.95;;;;;;;10.66;82.07;101108.34;1660625;85;21764;-89
2023/01/02 09:33:54;;;;;;;45.20;28.35;;;;;;;10.71;82.10;101101.88;1666667;85;21039;-90
2023/01/02 09:36:20;;;;;;;47.17;28.85;;;;;;;10.77;82.02;101101.17;1667471;85;21018;-89
2023/01/02 09:38:53;;;;;;;44.58;28.20;;;;;;;10.80;81.92;101097.33;1666299;85;21067;-89
2023/01/02 09:41:36;;;;;;;45.12;30.10;;;;;;;10.82;81.78;101095.63;1665494;85;21107;-89
2023/01/02 09:44:10;;;;;;;58.90;33.50;;;;;;;10.81;81.72;101097.78;1667212;85;22014;-89
2023/01/02 09:47:07;;;;;;;67.75;40.45;;;;;;;10.81;81.60;101096.06;1667629;85;21045;-89
2023/01/02 09:49:47;;;;;;;50.58;32.35;;;;;;;10.79;81.57;101094.21;1666520;85;21448;-90
2023/01/02 09:52:24;;;;;;;46.28;31.05;;;;;;;10.81;81.60;101088.56;1666513;85;21084;-89
2023/01/02 09:54:51;;;;;;;39.42;25.97;;;;;;;10.85;81.69;101077.30;1660187;85;21012;-90
2023/01/02 09:57:35;;;;;;;45.35;29.50;;;;;;;10.89;81.60;101062.93;1665939;85;23058;-89
2023/01/02 10:00:22;;;;;;;;;;;;;;;10.91;81.48;101061.66;1682799;85;21651;-89
2023/01/02 10:03:15;;;;;;;54.67;36.25;;;;;;;10.94;81.44;101060.41;1640307;85;20191;-89
2023/01/02 10:06:12;;;;;;;52.17;33.75;;;;;;;10.93;81.28;101061.71;1668120;84;21001;-89
2023/01/02 10:09:12;;;;;;;38.15;26.42;;;;;;;10.92;81.22;101062.55;1667679;85;20993;-89
2023/01/02 10:12:04;;;;;;;38.92;25.12;;;;;;;10.92;81.29;101056.84;1661793;85;21821;-89
2023/01/02 10:14:45;;;;;;;53.40;32.35;;;;;;;10.93;81.18;101049.43;1664406;85;21045;-89
2023/01/02 10:17:14;;;;;;;44.40;29.60;;;;;;;10.95;81.21;101047.73;1657699;85;21371;-89
2023/01/02 10:20:10;;;;;;;43.85;29.60;;;;;;;10.94;81.12;101049.88;1656602;85;20996;-89
2023/01/02 10:22:50;;;;;;;39.75;28.12;;;;;;;10.93;81.11;101050.75;1637988;85;21048;-89
2023/01/02 10:25:43;;;;;;;38.13;24.55;;;;;;;10.94;81.04;101056.89;1639647;85;21749;-89
2023/01/02 10:28:52;;;;;;;39.70;25.90;;;;;;;10.94;81.09;101047.24;1662340;85;21172;-89
2023/01/02 10:31:32;;;;;;;36.38;25.05;;;;;;;10.99;81.18;101040.80;1650910;85;21012;-89
2023/01/02 10:34:01;;;;;;;38.65;24.30;;;;;;;11.04;81.16;101040.08;1658261;85;21015;-89
2023/01/02 10:36:30;;;;;;;32.73;22.50;;;;;;;11.07;81.14;101030.96;1659406;86;21035;-88
2023/01/02 10:39:07;;;;;;;36.23;21.87;;;;;;;11.13;81.14;101021.41;1612218;86;21820;-88
2023/01/02 10:41:34;;;;;;;39.15;23.87;;;;;;;11.21;81.15;101025.17;1657377;85;21424;-89
2023/01/02 10:44:04;;;;;;;36.55;22.95;;;;;;;11.27;81.06;101029.27;1659496;86;21390;-89
2023/01/02 10:46:35;;;;;;;45.10;24.85;;;;;;;11.32;80.99;101018.84;1652007;85;20986;-89
2023/01/02 10:49:07;;;;;;;44.13;25.35;;;;;;;11.38;80.94;101015.07;1665949;85;22406;-90
2023/01/02 10:51:39;;;;;;;36.80;23.02;;;;;;;11.43;80.90;101003.80;1668478;85;22512;-89
2023/01/02 10:54:08;;;;;;;35.55;22.77;;;;;;;11.48;80.83;101002.14;1669644;85;21991;-89
2023/01/02 10:56:39;;;;;;;32.38;21.87;;;;;;;11.55;80.82;100995.30;1660466;85;22241;-89
2023/01/02 10:59:21;;;;;;;33.95;22.32;;;;;;;11.57;80.66;100997.97;1630475;86;21958;-89
2023/01/02 11:01:55;;;;;;;36.63;22.60;;;;;;;11.61;80.68;100998.51;1659966;85;21123;-89
2023/01/02 11:04:25;;;;;;;37.13;23.40;;;;;;;11.63;80.46;100996.36;1664097;85;21907;-89
2023/01/02 11:07:01;;;;;;;37.28;23.12;;;;;;;11.63;80.41;100986.25;1619963;87;21931;-89
2023/01/02 11:09:30;;;;;;;36.28;21.75;;;;;;;11.66;80.42;100976.67;1666719;85;20990;-89
2023/01/02 11:12:11;;;;;;;37.42;22.60;;;;;;;11.69;80.31;100978.48;1657769;85;21055;-89
2023/01/02 11:14:38;;;;;;;43.85;29.67;;;;;;;11.72;80.33;100983.84;1668989;83;21091;-89
2023/01/02 11:17:09;;;;;;;39.95;27.58;;;;;;;11.73;80.14;100972.45;1640836;85;21803;-89
2023/01/02 11:19:49;;;;;;;37.98;23.95;;;;;;;11.79;80.27;100982.25;1667965;84;21015;-89
2023/01/02 11:22:21;;;;;;;31.95;22.22;;;;;;;11.85;80.14;100989.87;1666107;85;20980;-88
2023/01/02 11:24:53;;;;;;;30.48;20.37;;;;;;;11.90;80.06;100991.75;1647134;85;21039;-89
2023/01/02 11:27:21;;;;;;;30.62;21.65;;;;;;;11.98;80.12;100989.77;1669553;83;21027;-89
2023/01/02 11:29:48;;;;;;;34.53;21.85;;;;;;;12.07;80.00;100991.73;1658533;85;22387;-88
2023/01/02 11:32:27;;;;;;;31.93;22.13;;;;;;;12.14;79.93;100996.70;1620251;87;21552;-89
2023/01/02 11:35:15;;;;;;;32.63;20.77;;;;;;;12.20;79.84;100990.23;1638026;85;21004;-89
2023/01/02 11:37:53;;;;;;;33.38;20.60;;;;;;;12.27;79.73;100987.31;1631228;84;21023;-92
2023/01/02 11:40:28;;;;;;;32.88;20.62;;;;;;;12.34;79.74;100983.52;1666299;85;20988;-90
2023/01/02 11:45:54;;;;;;;35.98;17.60;;;;;;;12.43;79.44;100976.23;1669733;85;21004;-89
2023/01/02 11:48:22;;;;;;;26.35;17.73;;;;;;;12.47;79.32;100972.80;1666174;84;21023;-89